Bookmark and Share
Track history (hours):
 

OOCL Long Beach

Last reported at 2014-Apr-09 13:31 UTC. Time now 2014-Apr-17 18:38 UTC.
Position N 26°56' E 122°17'.
Warning: this ship's position is 8 days out of date.

Length 323 m; beam 42.8 m; draft 14.5 m.

Type: Cargo ship. MMSI: 477316000.

NotesDate/timePositionNaut miles runAvg speedWind from/ knotsBaromVisibWave heightAir tempDewpointWater temp
2014-Apr-09 13:31N 26°56' E 122°17'27519.7
2014-Apr-08 23:33N 22°50' E 120°01'2019.7
2014-Apr-08 22:33N 22°33' E 120°13'6 5.7
2014-Apr-08 21:33N 22°34' E 120°19'0 0.1
2014-Apr-08 20:24N 22°34' E 120°19'0 0.0
2014-Apr-08 19:30N 22°34' E 120°19'0 0.0
2014-Apr-08 18:30N 22°34' E 120°19'0 0.0
2014-Apr-08 17:30N 22°34' E 120°19'0 0.0
2014-Apr-08 16:06N 22°34' E 120°19'0 0.0
2014-Apr-08 15:30N 22°34' E 120°19'0 0.0
2014-Apr-08 14:30N 22°34' E 120°19'0 0.0
2014-Apr-08 13:30N 22°34' E 120°19'0 0.0
2014-Apr-08 12:24N 22°34' E 120°19'0 0.0
2014-Apr-08 11:30N 22°34' E 120°19'0 0.5
2014-Apr-08 10:33N 22°34' E 120°19'4 4.1
2014-Apr-08 09:33N 22°32' E 120°15'1413.8
2014-Apr-08 08:33N 22°30' E 120°00'2221.9
2014-Apr-08 07:33N 22°28' E 119°36'2222.1
2014-Apr-08 06:33N 22°26' E 119°13'2222.3
2014-Apr-08 05:33N 22°24' E 118°49'2521.5
2014-Apr-08 04:24N 22°22' E 118°22'1821.5
2014-Apr-08 03:33N 22°20' E 118°02'20916.1
2014-Apr-07 14:32N 22°34' E 114°16'0 0.0
2014-Apr-07 12:32N 22°34' E 114°16'0 0.0
2014-Apr-07 11:32N 22°34' E 114°16'0 0.0
2014-Apr-07 08:32N 22°34' E 114°16'0 0.1
2014-Apr-07 07:32N 22°34' E 114°16'0 0.0
2014-Apr-07 05:32N 22°34' E 114°16'0 0.0
2014-Apr-07 04:32N 22°34' E 114°16'0 0.0
2014-Apr-07 03:26N 22°34' E 114°16'0 0.0
2014-Apr-07 02:32N 22°34' E 114°16'0 0.0
2014-Apr-07 01:32N 22°34' E 114°16'0 0.0
2014-Apr-07 00:14N 22°34' E 114°16'0 0.2
2014-Apr-06 23:28N 22°34' E 114°16'27 7.9
2014-Apr-06 20:06N 22°07' E 114°13'912.3
2014-Apr-06 19:21N 22°15' E 114°07'5 0.4
2014-Apr-06 06:31N 22°20' E 114°07'9 7.5
2014-Apr-06 05:16N 22°11' E 114°12'10 5.7
2014-Apr-06 03:33N 22°19' E 114°05'1211.9
2014-Apr-06 02:33N 22°24' E 113°53'8 7.6
2014-Apr-06 01:27N 22°32' E 113°51'0 0.1
2014-Apr-06 00:15N 22°32' E 113°51'0 0.0
2014-Apr-05 20:21N 22°32' E 113°51'0 0.0
2014-Apr-05 19:03N 22°32' E 113°51'0 0.0
2014-Apr-05 18:33N 22°32' E 113°51'0 0.0
2014-Apr-05 15:33N 22°32' E 113°51'0 0.0
2014-Apr-05 11:15N 22°32' E 113°51'0 0.0
2014-Apr-05 10:33N 22°32' E 113°51'0 0.0
2014-Apr-05 08:21N 22°32' E 113°51'0 0.0
2014-Apr-05 06:15N 22°32' E 113°51'0 0.0
2014-Apr-05 05:21N 22°32' E 113°51'0 0.0
2014-Apr-05 04:27N 22°32' E 113°51'0 0.0
2014-Apr-04 22:27N 22°32' E 113°51'0 0.0
2014-Apr-04 18:33N 22°32' E 113°51'0 0.1
2014-Apr-04 17:33N 22°32' E 113°51'8 8.0
2014-Apr-04 16:32N 22°24' E 113°54'1110.0
2014-Apr-04 15:24N 22°20' E 114°05'2 0.1
2014-Apr-04 01:06N 22°21' E 114°07'3 5.0
2014-Apr-04 00:33N 22°18' E 114°06'1110.2
2014-Apr-03 23:30N 22°10' E 114°13'1410.3
2014-Apr-03 22:08N 22°10' E 114°28'18012.3
2014-Apr-03 07:33N 23°16' E 117°29'1414.0
2014-Apr-03 06:33N 23°27' E 117°39'1413.6
2014-Apr-03 05:33N 23°37' E 117°49'1313.1
2014-Apr-03 04:33N 23°46' E 117°60'1313.1
2014-Apr-03 03:33N 23°55' E 118°10'1212.5
2014-Apr-03 02:34N 24°05' E 118°18'1111.3
2014-Apr-03 01:33N 24°16' E 118°14'1313.0
2014-Apr-03 00:34N 24°25' E 118°05'4 4.2
2014-Apr-02 23:33N 24°27' E 118°00'0 0.0
2014-Apr-02 22:30N 24°27' E 118°00'0 0.0
2014-Apr-02 21:18N 24°27' E 118°00'0 0.0
2014-Apr-02 20:30N 24°27' E 118°00'0 0.0
2014-Apr-02 19:24N 24°27' E 118°00'0 0.0
2014-Apr-02 18:30N 24°27' E 118°00'0 0.0
2014-Apr-02 17:30N 24°27' E 118°00'0 0.0
2014-Apr-02 16:30N 24°27' E 118°00'0 0.0
2014-Apr-02 15:24N 24°27' E 118°00'0 0.0
2014-Apr-02 14:30N 24°27' E 118°00'0 0.0
2014-Apr-02 11:24N 24°27' E 118°00'0 0.0
2014-Apr-02 10:06N 24°27' E 118°00'0 0.0
2014-Apr-02 09:18N 24°27' E 118°00'0 0.0
2014-Apr-02 08:18N 24°27' E 118°00'0 0.0
2014-Apr-02 07:30N 24°27' E 118°00'0 0.0
2014-Apr-02 06:30N 24°27' E 118°00'4 4.1
2014-Apr-02 05:33N 24°25' E 118°04'1312.7
2014-Apr-02 04:34N 24°16' E 118°14'8 6.6
2014-Apr-02 03:22N 24°12' E 118°21'0 0.1
2014-Apr-02 02:22N 24°12' E 118°21'0 0.1
2014-Apr-02 01:10N 24°12' E 118°21'0 0.1
2014-Apr-02 00:10N 24°12' E 118°22'0 0.0
2014-Apr-01 22:10N 24°12' E 118°22'0 0.0
2014-Apr-01 21:22N 24°12' E 118°22'0 0.0
2014-Apr-01 20:28N 24°12' E 118°22'0 0.0
2014-Apr-01 19:28N 24°12' E 118°22'0 0.0
2014-Apr-01 14:23N 24°12' E 118°21'0 0.0
2014-Apr-01 12:05N 24°12' E 118°21'0 0.1
2014-Apr-01 10:05N 24°12' E 118°22'0 0.0
2014-Apr-01 08:29N 24°12' E 118°22'0 0.1
2014-Apr-01 07:33N 24°12' E 118°22'5 4.8
2014-Apr-01 06:33N 24°09' E 118°26'8 7.7
2014-Apr-01 05:29N 24°03' E 118°31'10 7.9
2014-Apr-01 04:13N 23°55' E 118°38'76 9.5
2014-Mar-31 20:13N 23°00' E 119°35'6 8.6
2014-Mar-31 19:33N 22°57' E 119°40'8 7.7
2014-Mar-31 18:33N 22°52' E 119°47'9 8.8
2014-Mar-31 17:33N 22°47' E 119°55'9 8.9
2014-Mar-31 16:33N 22°42' E 120°03'9 8.9
2014-Mar-31 15:33N 22°35' E 120°09'9 9.1
2014-Mar-31 14:33N 22°33' E 120°19'1 1.1
2014-Mar-31 13:31N 22°34' E 120°19'0 0.0
2014-Mar-31 12:31N 22°34' E 120°19'0 0.0
2014-Mar-31 11:25N 22°34' E 120°19'0 0.0
2014-Mar-31 09:31N 22°34' E 120°19'0 0.0
2014-Mar-31 08:31N 22°34' E 120°19'0 0.0
2014-Mar-31 07:31N 22°34' E 120°19'0 0.0
2014-Mar-31 06:25N 22°34' E 120°19'0 0.0
2014-Mar-31 05:19N 22°34' E 120°19'0 0.0
2014-Mar-31 04:25N 22°34' E 120°19'0 0.0
2014-Mar-31 03:31N 22°34' E 120°19'0 0.0
2014-Mar-31 02:31N 22°34' E 120°19'0 0.0
2014-Mar-31 01:25N 22°34' E 120°19'0 0.0
2014-Mar-31 00:19N 22°34' E 120°19'0 0.0
2014-Mar-30 23:31N 22°34' E 120°19'0 0.0
2014-Mar-30 22:25N 22°34' E 120°19'0 0.0
2014-Mar-30 21:31N 22°34' E 120°19'0 0.0
2014-Mar-30 20:31N 22°34' E 120°19'0 0.0
2014-Mar-30 19:31N 22°34' E 120°19'0 0.0
2014-Mar-30 18:31N 22°34' E 120°19'0 0.0
2014-Mar-30 17:25N 22°34' E 120°19'0 0.0
2014-Mar-30 16:31N 22°34' E 120°19'0 0.0
2014-Mar-30 15:25N 22°34' E 120°19'0 0.0
2014-Mar-30 14:31N 22°34' E 120°19'  

Dump ship's entire track history

sailing weather and tide predictions

OOCL Long Beach — VRYO4 — position and weather